Strona główna
METAR-TAF:

METAR-TAF

Lotnisko :

Port lotniczy Leeuwarden

Leeuwarden, Holandia

Szerokość geograficzna: 53-13N, Długość geograficzna: 005-46E, wysokość: 1 m

Aktualna obserwacja pogody

Raport powstał 16 minut temu, godzina 23:33 UTC
Wiatr 4 kt od północ
Temperatura 4°C
Wilgotność 100%
Ciśnienie 1022 hPa
Widzialność: 7000 m
zamglenie

METAR: EHLW 182333Z AUTO 01004KT 7000 BR NCD 04/04 Q1022 WHT

czas: 01:49 (23:49 UTC)

Prognoza

Raport powstał 3 godziny i 2 minut temu, godzina 20:47 UTC
Prognoza ważna od 18 godzina 21 UTC do 19 godzina 09 UTC
Wiatr 5 kt od północno-północny wschód
Widzialność 10 km lub więcej
Brak chmur poniżej 1500 m i brak chmur cumulonimbus
Stopniowe zmiany
od 18 godzina 21 UTC do 18 godzina 23 UTC
Widzialność: 4000 m
Rozproszone chmury na wysokości 3500 ft
zamglenie
Prawdopodobieństwo 40%
od 19 godzina 01 UTC do 19 godzina 05 UTC
Widzialność: 1500 m

TAF: EHLW 182047Z 1821/1909 02005KT CAVOK BECMG 1821/1823 4000 BR SCT035 PROB40 1901/1905 1500

Obserwacja i prognoza pogody dla ponad 4000 lotnisk (raport METAR i TAF).

Dostępne stacje oznaczono żółtymi i czerwonymi punktami na mapie.

Najedź kursorem aby zobaczyć nazwę stacji.

Kliknij aby zobaczyć obserwacje i prognozy pogody.

Aby zmienić mapę: kliknij na zielony przycisk z czarnym krzyżykiem, aby powiększyć; na zielony przycisk z myślnikiem, aby pomniejszyć; na zielone strzałki, aby przejść do map sąsiednich.


METAR-TAF: